sensor_id;sensor_type;location;lat;lon;timestamp;temperature;humidity
25346;DHT22;13300;51.032;3.710;2023-04-01T00:00:49;10.60;99.90
25346;DHT22;13300;51.032;3.710;2023-04-01T00:03:15;10.60;99.90
25346;DHT22;13300;51.032;3.710;2023-04-01T00:05:41;10.60;99.90
25346;DHT22;13300;51.032;3.710;2023-04-01T00:08:06;10.60;99.90
25346;DHT22;13300;51.032;3.710;2023-04-01T00:10:32;10.60;99.90
25346;DHT22;13300;51.032;3.710;2023-04-01T00:12:58;10.60;99.90
25346;DHT22;13300;51.032;3.710;2023-04-01T00:15:24;10.50;99.90
25346;DHT22;13300;51.032;3.710;2023-04-01T00:17:50;10.50;99.90
25346;DHT22;13300;51.032;3.710;2023-04-01T00:20:16;10.50;99.90
25346;DHT22;13300;51.032;3.710;2023-04-01T00:22:41;10.50;99.90
25346;DHT22;13300;51.032;3.710;2023-04-01T00:25:07;10.50;99.90
25346;DHT22;13300;51.032;3.710;2023-04-01T00:27:34;10.50;99.90
25346;DHT22;13300;51.032;3.710;2023-04-01T00:29:59;10.50;99.90
25346;DHT22;13300;51.032;3.710;2023-04-01T00:32:25;10.50;99.90
25346;DHT22;13300;51.032;3.710;2023-04-01T00:34:51;10.50;99.90
25346;DHT22;13300;51.032;3.710;2023-04-01T00:37:19;10.50;99.90
25346;DHT22;13300;51.032;3.710;2023-04-01T00:39:46;10.60;99.90
25346;DHT22;13300;51.032;3.710;2023-04-01T00:42:12;10.60;99.90
25346;DHT22;13300;51.032;3.710;2023-04-01T00:44:40;10.60;99.90
25346;DHT22;13300;51.032;3.710;2023-04-01T00:47:06;10.60;99.90
25346;DHT22;13300;51.032;3.710;2023-04-01T00:49:39;10.60;99.90
25346;DHT22;13300;51.032;3.710;2023-04-01T00:52:12;10.50;99.90
25346;DHT22;13300;51.032;3.710;2023-04-01T00:54:38;10.50;99.90
25346;DHT22;13300;51.032;3.710;2023-04-01T00:57:38;10.50;99.90
25346;DHT22;13300;51.032;3.710;2023-04-01T01:00:06;10.40;99.90
25346;DHT22;13300;51.032;3.710;2023-04-01T01:02:35;10.30;99.90
25346;DHT22;13300;51.032;3.710;2023-04-01T01:05:00;10.30;99.90
25346;DHT22;13300;51.032;3.710;2023-04-01T01:07:38;10.30;99.90
25346;DHT22;13300;51.032;3.710;2023-04-01T01:10:12;10.30;99.90
25346;DHT22;13300;51.032;3.710;2023-04-01T01:21:25;10.30;99.90
25346;DHT22;13300;51.032;3.710;2023-04-01T01:27:09;10.20;99.90
25346;DHT22;13300;51.032;3.710;2023-04-01T01:29:48;10.20;99.90
25346;DHT22;13300;51.032;3.710;2023-04-01T01:37:23;10.10;99.90
25346;DHT22;13300;51.032;3.710;2023-04-01T01:40:00;10.10;99.90
25346;DHT22;13300;51.032;3.710;2023-04-01T01:42:28;10.10;99.90
25346;DHT22;13300;51.032;3.710;2023-04-01T01:45:00;10.10;99.90
25346;DHT22;13300;51.032;3.710;2023-04-01T01:47:28;10.10;99.90
25346;DHT22;13300;51.032;3.710;2023-04-01T01:49:55;10.10;99.90
25346;DHT22;13300;51.032;3.710;2023-04-01T01:52:27;10.10;99.90
25346;DHT22;13300;51.032;3.710;2023-04-01T01:54:55;10.00;99.90
25346;DHT22;13300;51.032;3.710;2023-04-01T01:57:33;10.00;99.90
25346;DHT22;13300;51.032;3.710;2023-04-01T02:00:07;10.10;99.90
25346;DHT22;13300;51.032;3.710;2023-04-01T02:02:40;10.10;99.90
25346;DHT22;13300;51.032;3.710;2023-04-01T02:05:10;10.10;99.90
25346;DHT22;13300;51.032;3.710;2023-04-01T02:07:37;10.10;99.90
25346;DHT22;13300;51.032;3.710;2023-04-01T02:10:03;10.10;99.90
25346;DHT22;13300;51.032;3.710;2023-04-01T02:12:30;10.10;99.90
25346;DHT22;13300;51.032;3.710;2023-04-01T02:15:06;10.10;99.90
25346;DHT22;13300;51.032;3.710;2023-04-01T02:17:34;10.10;99.90
25346;DHT22;13300;51.032;3.710;2023-04-01T02:20:11;10.10;99.90
25346;DHT22;13300;51.032;3.710;2023-04-01T02:22:41;10.20;99.90
25346;DHT22;13300;51.032;3.710;2023-04-01T02:25:13;10.20;99.90
25346;DHT22;13300;51.032;3.710;2023-04-01T02:27:40;10.20;99.90
25346;DHT22;13300;51.032;3.710;2023-04-01T02:30:08;10.20;99.90
25346;DHT22;13300;51.032;3.710;2023-04-01T02:32:37;10.20;99.90
25346;DHT22;13300;51.032;3.710;2023-04-01T02:35:15;10.20;99.90
25346;DHT22;13300;51.032;3.710;2023-04-01T02:37:42;10.30;99.90
25346;DHT22;13300;51.032;3.710;2023-04-01T02:40:13;10.20;99.90
25346;DHT22;13300;51.032;3.710;2023-04-01T02:42:39;10.20;99.90
25346;DHT22;13300;51.032;3.710;2023-04-01T02:45:05;10.20;99.90
25346;DHT22;13300;51.032;3.710;2023-04-01T02:47:31;10.10;99.90
25346;DHT22;13300;51.032;3.710;2023-04-01T02:49:57;10.10;99.90
25346;DHT22;13300;51.032;3.710;2023-04-01T02:52:28;10.20;99.90
25346;DHT22;13300;51.032;3.710;2023-04-01T02:54:55;10.10;99.90
25346;DHT22;13300;51.032;3.710;2023-04-01T02:57:21;10.10;99.90
25346;DHT22;13300;51.032;3.710;2023-04-01T02:59:47;10.20;99.90
25346;DHT22;13300;51.032;3.710;2023-04-01T03:02:14;10.20;99.90
25346;DHT22;13300;51.032;3.710;2023-04-01T03:04:40;10.20;99.90
25346;DHT22;13300;51.032;3.710;2023-04-01T03:07:06;10.10;99.90
25346;DHT22;13300;51.032;3.710;2023-04-01T03:09:32;10.10;99.90
25346;DHT22;13300;51.032;3.710;2023-04-01T03:11:58;10.10;99.90
25346;DHT22;13300;51.032;3.710;2023-04-01T03:14:23;10.20;99.90
25346;DHT22;13300;51.032;3.710;2023-04-01T03:16:49;10.20;99.90
25346;DHT22;13300;51.032;3.710;2023-04-01T03:19:15;10.30;99.90
25346;DHT22;13300;51.032;3.710;2023-04-01T03:21:40;10.40;99.90
25346;DHT22;13300;51.032;3.710;2023-04-01T03:24:06;10.30;99.90
25346;DHT22;13300;51.032;3.710;2023-04-01T03:26:33;10.40;99.90
25346;DHT22;13300;51.032;3.710;2023-04-01T03:28:58;10.30;99.90
25346;DHT22;13300;51.032;3.710;2023-04-01T03:31:25;10.30;99.90
25346;DHT22;13300;51.032;3.710;2023-04-01T03:33:51;10.10;99.90
25346;DHT22;13300;51.032;3.710;2023-04-01T03:36:17;10.10;99.90
25346;DHT22;13300;51.032;3.710;2023-04-01T03:38:44;10.00;99.90
25346;DHT22;13300;51.032;3.710;2023-04-01T03:41:17;10.00;99.90
25346;DHT22;13300;51.032;3.710;2023-04-01T03:43:43;10.00;99.90
25346;DHT22;13300;51.032;3.710;2023-04-01T03:46:09;10.10;99.90
25346;DHT22;13300;51.032;3.710;2023-04-01T03:48:35;10.10;99.90
25346;DHT22;13300;51.032;3.710;2023-04-01T03:51:01;10.10;99.90
25346;DHT22;13300;51.032;3.710;2023-04-01T03:53:26;10.10;99.90
25346;DHT22;13300;51.032;3.710;2023-04-01T03:55:52;10.10;99.90
25346;DHT22;13300;51.032;3.710;2023-04-01T03:58:19;10.10;99.90
25346;DHT22;13300;51.032;3.710;2023-04-01T04:00:45;10.00;99.90
25346;DHT22;13300;51.032;3.710;2023-04-01T04:03:11;10.00;99.90
25346;DHT22;13300;51.032;3.710;2023-04-01T04:05:37;10.00;99.90
25346;DHT22;13300;51.032;3.710;2023-04-01T04:08:03;10.10;99.90
25346;DHT22;13300;51.032;3.710;2023-04-01T04:10:28;10.00;99.90
25346;DHT22;13300;51.032;3.710;2023-04-01T04:12:55;10.00;99.90
25346;DHT22;13300;51.032;3.710;2023-04-01T04:15:22;10.00;99.90
25346;DHT22;13300;51.032;3.710;2023-04-01T04:17:48;10.00;99.90
25346;DHT22;13300;51.032;3.710;2023-04-01T04:20:14;9.80;99.90
25346;DHT22;13300;51.032;3.710;2023-04-01T04:22:40;9.90;99.90
25346;DHT22;13300;51.032;3.710;2023-04-01T04:25:06;9.90;99.90
25346;DHT22;13300;51.032;3.710;2023-04-01T04:27:33;9.80;99.90
25346;DHT22;13300;51.032;3.710;2023-04-01T04:29:59;9.90;99.90
25346;DHT22;13300;51.032;3.710;2023-04-01T04:32:24;9.90;99.90
25346;DHT22;13300;51.032;3.710;2023-04-01T04:34:50;9.90;99.90
25346;DHT22;13300;51.032;3.710;2023-04-01T04:37:16;9.90;99.90
25346;DHT22;13300;51.032;3.710;2023-04-01T04:39:42;9.90;99.90
25346;DHT22;13300;51.032;3.710;2023-04-01T04:42:07;9.90;99.90
25346;DHT22;13300;51.032;3.710;2023-04-01T04:44:33;9.90;99.90
25346;DHT22;13300;51.032;3.710;2023-04-01T04:46:59;9.90;99.90
25346;DHT22;13300;51.032;3.710;2023-04-01T04:49:25;9.90;99.90
25346;DHT22;13300;51.032;3.710;2023-04-01T04:51:50;9.90;99.90
25346;DHT22;13300;51.032;3.710;2023-04-01T04:54:17;9.90;99.90
25346;DHT22;13300;51.032;3.710;2023-04-01T04:56:43;9.90;99.90
25346;DHT22;13300;51.032;3.710;2023-04-01T04:59:09;9.80;99.90
25346;DHT22;13300;51.032;3.710;2023-04-01T05:01:34;9.80;99.90
25346;DHT22;13300;51.032;3.710;2023-04-01T05:04:00;9.80;99.90
25346;DHT22;13300;51.032;3.710;2023-04-01T05:06:26;9.90;99.90
25346;DHT22;13300;51.032;3.710;2023-04-01T05:08:55;9.90;99.90
25346;DHT22;13300;51.032;3.710;2023-04-01T05:11:21;9.80;99.90
25346;DHT22;13300;51.032;3.710;2023-04-01T05:13:47;9.80;99.90
25346;DHT22;13300;51.032;3.710;2023-04-01T05:16:18;9.80;99.90
25346;DHT22;13300;51.032;3.710;2023-04-01T05:18:44;9.80;99.90
25346;DHT22;13300;51.032;3.710;2023-04-01T05:21:12;9.80;99.90
25346;DHT22;13300;51.032;3.710;2023-04-01T05:23:38;9.80;99.90
25346;DHT22;13300;51.032;3.710;2023-04-01T05:26:10;9.80;99.90
25346;DHT22;13300;51.032;3.710;2023-04-01T05:28:36;9.80;99.90
25346;DHT22;13300;51.032;3.710;2023-04-01T05:31:05;9.90;99.90
25346;DHT22;13300;51.032;3.710;2023-04-01T05:33:32;9.90;99.90
25346;DHT22;13300;51.032;3.710;2023-04-01T05:36:09;9.90;99.90
25346;DHT22;13300;51.032;3.710;2023-04-01T05:38:35;9.90;99.90
25346;DHT22;13300;51.032;3.710;2023-04-01T05:41:02;9.90;99.90
25346;DHT22;13300;51.032;3.710;2023-04-01T05:43:28;10.00;99.90
25346;DHT22;13300;51.032;3.710;2023-04-01T05:45:55;9.90;99.90
25346;DHT22;13300;51.032;3.710;2023-04-01T05:48:21;10.00;99.90
25346;DHT22;13300;51.032;3.710;2023-04-01T05:50:47;10.00;99.90
25346;DHT22;13300;51.032;3.710;2023-04-01T05:53:24;10.00;99.90
25346;DHT22;13300;51.032;3.710;2023-04-01T05:55:50;10.00;99.90
25346;DHT22;13300;51.032;3.710;2023-04-01T05:58:15;10.00;99.90
25346;DHT22;13300;51.032;3.710;2023-04-01T06:00:41;10.00;99.90
25346;DHT22;13300;51.032;3.710;2023-04-01T06:03:07;10.00;99.90
25346;DHT22;13300;51.032;3.710;2023-04-01T06:05:43;9.90;99.90
25346;DHT22;13300;51.032;3.710;2023-04-01T06:08:15;9.90;99.90
25346;DHT22;13300;51.032;3.710;2023-04-01T06:10:55;9.80;99.90
25346;DHT22;13300;51.032;3.710;2023-04-01T06:19:03;9.70;99.90
25346;DHT22;13300;51.032;3.710;2023-04-01T06:24:12;9.70;99.90
25346;DHT22;13300;51.032;3.710;2023-04-01T06:32:46;9.80;99.90
25346;DHT22;13300;51.032;3.710;2023-04-01T06:54:34;9.80;99.90
25346;DHT22;13300;51.032;3.710;2023-04-01T06:57:15;9.80;99.90
25346;DHT22;13300;51.032;3.710;2023-04-01T06:59:44;9.90;99.90
25346;DHT22;13300;51.032;3.710;2023-04-01T07:04:39;10.00;99.90
25346;DHT22;13300;51.032;3.710;2023-04-01T07:07:19;10.00;99.90
25346;DHT22;13300;51.032;3.710;2023-04-01T07:09:55;10.00;99.90
25346;DHT22;13300;51.032;3.710;2023-04-01T07:12:40;10.10;99.90
25346;DHT22;13300;51.032;3.710;2023-04-01T07:17:42;9.90;99.90
25346;DHT22;13300;51.032;3.710;2023-04-01T07:22:49;10.10;99.90
25346;DHT22;13300;51.032;3.710;2023-04-01T07:28:12;10.30;99.90
25346;DHT22;13300;51.032;3.710;2023-04-01T07:30:53;10.30;99.90
25346;DHT22;13300;51.032;3.710;2023-04-01T07:33:37;10.40;99.90
25346;DHT22;13300;51.032;3.710;2023-04-01T07:36:13;10.60;99.90
25346;DHT22;13300;51.032;3.710;2023-04-01T07:41:36;10.60;99.90
25346;DHT22;13300;51.032;3.710;2023-04-01T07:44:35;10.50;99.90
25346;DHT22;13300;51.032;3.710;2023-04-01T07:50:17;10.70;99.90
25346;DHT22;13300;51.032;3.710;2023-04-01T07:58:09;10.40;99.90
25346;DHT22;13300;51.032;3.710;2023-04-01T08:01:02;10.50;99.90
25346;DHT22;13300;51.032;3.710;2023-04-01T08:06:50;10.40;99.90
25346;DHT22;13300;51.032;3.710;2023-04-01T08:21:02;10.60;99.90
25346;DHT22;13300;51.032;3.710;2023-04-01T08:23:47;10.60;99.90
25346;DHT22;13300;51.032;3.710;2023-04-01T08:36:54;10.60;99.90
25346;DHT22;13300;51.032;3.710;2023-04-01T08:45:23;10.30;99.90
25346;DHT22;13300;51.032;3.710;2023-04-01T08:50:58;10.30;99.90
25346;DHT22;13300;51.032;3.710;2023-04-01T08:56:20;10.30;99.90
25346;DHT22;13300;51.032;3.710;2023-04-01T08:59:12;10.30;99.90
25346;DHT22;13300;51.032;3.710;2023-04-01T09:09:27;10.60;99.90
25346;DHT22;13300;51.032;3.710;2023-04-01T09:14:42;10.90;99.90
25346;DHT22;13300;51.032;3.710;2023-04-01T09:17:18;11.10;99.90
25346;DHT22;13300;51.032;3.710;2023-04-01T09:25:44;11.00;99.90
25346;DHT22;13300;51.032;3.710;2023-04-01T09:28:28;11.00;99.90
25346;DHT22;13300;51.032;3.710;2023-04-01T09:31:04;10.90;99.90
25346;DHT22;13300;51.032;3.710;2023-04-01T09:34:10;10.90;99.90
25346;DHT22;13300;51.032;3.710;2023-04-01T09:36:47;10.80;99.90
25346;DHT22;13300;51.032;3.710;2023-04-01T09:42:24;10.90;99.90
25346;DHT22;13300;51.032;3.710;2023-04-01T09:45:29;10.90;99.90
25346;DHT22;13300;51.032;3.710;2023-04-01T09:50:43;10.60;99.90
25346;DHT22;13300;51.032;3.710;2023-04-01T09:56:35;10.60;99.90
25346;DHT22;13300;51.032;3.710;2023-04-01T10:21:08;10.40;99.90
25346;DHT22;13300;51.032;3.710;2023-04-01T10:27:58;10.30;99.90
25346;DHT22;13300;51.032;3.710;2023-04-01T10:30:05;10.40;99.90
25346;DHT22;13300;51.032;3.710;2023-04-01T10:35:50;10.90;99.90
25346;DHT22;13300;51.032;3.710;2023-04-01T10:44:13;11.10;99.90
25346;DHT22;13300;51.032;3.710;2023-04-01T10:55:32;11.30;99.90
25346;DHT22;13300;51.032;3.710;2023-04-01T11:09:19;11.20;99.90
25346;DHT22;13300;51.032;3.710;2023-04-01T11:28:42;11.20;99.90
25346;DHT22;13300;51.032;3.710;2023-04-01T11:34:28;11.10;99.90
25346;DHT22;13300;51.032;3.710;2023-04-01T11:37:31;11.00;99.90
25346;DHT22;13300;51.032;3.710;2023-04-01T11:40:35;10.90;99.90
25346;DHT22;13300;51.032;3.710;2023-04-01T11:45:56;10.90;99.90
25346;DHT22;13300;51.032;3.710;2023-04-01T11:51:45;10.90;99.90
25346;DHT22;13300;51.032;3.710;2023-04-01T11:54:27;10.90;99.90
25346;DHT22;13300;51.032;3.710;2023-04-01T12:28:25;11.00;99.90
25346;DHT22;13300;51.032;3.710;2023-04-01T12:39:44;11.50;99.90
25346;DHT22;13300;51.032;3.710;2023-04-01T12:45:49;11.40;99.90
25346;DHT22;13300;51.032;3.710;2023-04-01T13:08:35;11.10;99.90
25346;DHT22;13300;51.032;3.710;2023-04-01T13:13:50;10.90;99.90
25346;DHT22;13300;51.032;3.710;2023-04-01T13:17:04;10.80;99.90
25346;DHT22;13300;51.032;3.710;2023-04-01T13:25:44;10.80;99.90
25346;DHT22;13300;51.032;3.710;2023-04-01T13:34:48;11.00;99.90
25346;DHT22;13300;51.032;3.710;2023-04-01T13:48:32;11.10;99.90
25346;DHT22;13300;51.032;3.710;2023-04-01T13:56:50;11.00;99.90
25346;DHT22;13300;51.032;3.710;2023-04-01T13:59:38;11.00;99.90
25346;DHT22;13300;51.032;3.710;2023-04-01T14:08:00;10.70;99.90
25346;DHT22;13300;51.032;3.710;2023-04-01T14:10:43;10.70;99.90
25346;DHT22;13300;51.032;3.710;2023-04-01T14:16:51;10.50;99.90
25346;DHT22;13300;51.032;3.710;2023-04-01T14:25:38;10.70;99.90
25346;DHT22;13300;51.032;3.710;2023-04-01T14:34:30;10.60;99.90
25346;DHT22;13300;51.032;3.710;2023-04-01T14:40:24;10.60;99.90
25346;DHT22;13300;51.032;3.710;2023-04-01T14:48:50;10.40;99.90
25346;DHT22;13300;51.032;3.710;2023-04-01T14:54:16;10.40;99.90
25346;DHT22;13300;51.032;3.710;2023-04-01T14:57:15;10.30;99.90
25346;DHT22;13300;51.032;3.710;2023-04-01T14:59:59;10.30;99.90
25346;DHT22;13300;51.032;3.710;2023-04-01T15:02:55;10.40;99.90
25346;DHT22;13300;51.032;3.710;2023-04-01T15:05:49;10.40;99.90
25346;DHT22;13300;51.032;3.710;2023-04-01T15:08:25;10.40;99.90
25346;DHT22;13300;51.032;3.710;2023-04-01T15:11:10;10.40;99.90
25346;DHT22;13300;51.032;3.710;2023-04-01T15:13:54;10.40;99.90
25346;DHT22;13300;51.032;3.710;2023-04-01T15:22:08;10.60;99.90
25346;DHT22;13300;51.032;3.710;2023-04-01T15:27:36;10.60;99.90
25346;DHT22;13300;51.032;3.710;2023-04-01T15:35:57;10.60;99.90
25346;DHT22;13300;51.032;3.710;2023-04-01T15:41:21;10.60;99.90
25346;DHT22;13300;51.032;3.710;2023-04-01T15:43:50;10.50;99.90
25346;DHT22;13300;51.032;3.710;2023-04-01T15:46:46;10.50;99.90
25346;DHT22;13300;51.032;3.710;2023-04-01T16:16:26;10.30;99.90
25346;DHT22;13300;51.032;3.710;2023-04-01T16:22:13;10.30;99.90
25346;DHT22;13300;51.032;3.710;2023-04-01T16:24:54;10.20;99.90
25346;DHT22;13300;51.032;3.710;2023-04-01T16:27:53;10.10;99.90
25346;DHT22;13300;51.032;3.710;2023-04-01T16:30:37;10.10;99.90
25346;DHT22;13300;51.032;3.710;2023-04-01T16:41:38;10.30;99.90
25346;DHT22;13300;51.032;3.710;2023-04-01T16:44:25;10.20;99.90
25346;DHT22;13300;51.032;3.710;2023-04-01T16:46:55;10.10;99.90
25346;DHT22;13300;51.032;3.710;2023-04-01T16:49:37;10.10;99.90
25346;DHT22;13300;51.032;3.710;2023-04-01T16:57:43;10.20;99.90
25346;DHT22;13300;51.032;3.710;2023-04-01T17:00:41;10.20;99.90
25346;DHT22;13300;51.032;3.710;2023-04-01T17:03:26;10.10;99.90
25346;DHT22;13300;51.032;3.710;2023-04-01T17:06:17;10.10;99.90
25346;DHT22;13300;51.032;3.710;2023-04-01T17:18:11;10.00;99.90
25346;DHT22;13300;51.032;3.710;2023-04-01T17:20:59;10.00;99.90
25346;DHT22;13300;51.032;3.710;2023-04-01T17:29:14;10.10;99.90
25346;DHT22;13300;51.032;3.710;2023-04-01T17:37:20;10.00;99.90
25346;DHT22;13300;51.032;3.710;2023-04-01T17:40:00;10.00;99.90
25346;DHT22;13300;51.032;3.710;2023-04-01T17:42:42;9.80;99.90
25346;DHT22;13300;51.032;3.710;2023-04-01T17:45:28;9.60;99.90
25346;DHT22;13300;51.032;3.710;2023-04-01T17:48:55;9.60;99.90
25346;DHT22;13300;51.032;3.710;2023-04-01T18:07:59;9.30;99.90
25346;DHT22;13300;51.032;3.710;2023-04-01T18:11:27;9.30;99.90
25346;DHT22;13300;51.032;3.710;2023-04-01T18:19:57;9.40;99.90
25346;DHT22;13300;51.032;3.710;2023-04-01T18:25:44;9.30;99.90
25346;DHT22;13300;51.032;3.710;2023-04-01T18:28:39;9.30;99.90
25346;DHT22;13300;51.032;3.710;2023-04-01T18:31:19;9.20;99.90
25346;DHT22;13300;51.032;3.710;2023-04-01T18:36:55;9.40;99.90
25346;DHT22;13300;51.032;3.710;2023-04-01T18:44:53;9.40;99.90
25346;DHT22;13300;51.032;3.710;2023-04-01T18:47:47;9.40;99.90
25346;DHT22;13300;51.032;3.710;2023-04-01T18:53:22;9.40;99.90
25346;DHT22;13300;51.032;3.710;2023-04-01T18:56:06;9.40;99.90
25346;DHT22;13300;51.032;3.710;2023-04-01T18:58:35;9.40;99.90
25346;DHT22;13300;51.032;3.710;2023-04-01T19:01:15;9.50;99.90
25346;DHT22;13300;51.032;3.710;2023-04-01T19:04:01;9.50;99.90
25346;DHT22;13300;51.032;3.710;2023-04-01T19:06:41;9.50;99.90
25346;DHT22;13300;51.032;3.710;2023-04-01T19:09:46;9.50;99.90
25346;DHT22;13300;51.032;3.710;2023-04-01T19:12:31;9.40;99.90
25346;DHT22;13300;51.032;3.710;2023-04-01T19:20:58;9.40;99.90
25346;DHT22;13300;51.032;3.710;2023-04-01T19:26:58;9.50;99.90
25346;DHT22;13300;51.032;3.710;2023-04-01T19:32:11;9.40;99.90
25346;DHT22;13300;51.032;3.710;2023-04-01T19:34:55;9.40;99.90
25346;DHT22;13300;51.032;3.710;2023-04-01T19:37:40;9.50;99.90
25346;DHT22;13300;51.032;3.710;2023-04-01T19:54:20;9.30;99.90
25346;DHT22;13300;51.032;3.710;2023-04-01T20:02:24;9.40;99.90
25346;DHT22;13300;51.032;3.710;2023-04-01T20:04:55;9.30;99.90
25346;DHT22;13300;51.032;3.710;2023-04-01T20:07:31;9.30;99.90
25346;DHT22;13300;51.032;3.710;2023-04-01T20:10:14;9.30;99.90
25346;DHT22;13300;51.032;3.710;2023-04-01T20:12:51;9.30;99.90
25346;DHT22;13300;51.032;3.710;2023-04-01T20:15:37;9.30;99.90
25346;DHT22;13300;51.032;3.710;2023-04-01T20:18:18;9.20;99.90
25346;DHT22;13300;51.032;3.710;2023-04-01T20:21:00;9.20;99.90
25346;DHT22;13300;51.032;3.710;2023-04-01T20:23:43;9.10;99.90
25346;DHT22;13300;51.032;3.710;2023-04-01T20:26:14;9.30;99.90
25346;DHT22;13300;51.032;3.710;2023-04-01T20:31:41;9.50;99.90
25346;DHT22;13300;51.032;3.710;2023-04-01T20:34:39;9.50;99.90
25346;DHT22;13300;51.032;3.710;2023-04-01T20:40:03;9.30;99.90
25346;DHT22;13300;51.032;3.710;2023-04-01T20:42:57;9.40;99.90
25346;DHT22;13300;51.032;3.710;2023-04-01T20:51:14;9.50;99.90
25346;DHT22;13300;51.032;3.710;2023-04-01T21:05:11;9.30;99.90
25346;DHT22;13300;51.032;3.710;2023-04-01T21:10:49;9.30;99.90
25346;DHT22;13300;51.032;3.710;2023-04-01T21:13:49;9.30;99.90
25346;DHT22;13300;51.032;3.710;2023-04-01T21:16:49;9.20;99.90
25346;DHT22;13300;51.032;3.710;2023-04-01T21:19:37;9.20;99.90
25346;DHT22;13300;51.032;3.710;2023-04-01T21:41:34;9.40;99.90
25346;DHT22;13300;51.032;3.710;2023-04-01T21:44:36;9.30;99.90
25346;DHT22;13300;51.032;3.710;2023-04-01T21:55:53;9.50;99.90
25346;DHT22;13300;51.032;3.710;2023-04-01T21:59:01;9.40;99.90
25346;DHT22;13300;51.032;3.710;2023-04-01T22:04:52;9.30;99.90
25346;DHT22;13300;51.032;3.710;2023-04-01T22:10:40;9.30;99.90
25346;DHT22;13300;51.032;3.710;2023-04-01T22:13:46;9.30;99.90
25346;DHT22;13300;51.032;3.710;2023-04-01T22:21:38;9.30;99.90
25346;DHT22;13300;51.032;3.710;2023-04-01T22:24:26;9.30;99.90
25346;DHT22;13300;51.032;3.710;2023-04-01T22:41:25;9.40;99.90
25346;DHT22;13300;51.032;3.710;2023-04-01T22:43:57;9.40;99.90
25346;DHT22;13300;51.032;3.710;2023-04-01T22:49:29;9.40;99.90
25346;DHT22;13300;51.032;3.710;2023-04-01T22:54:39;9.30;99.90
25346;DHT22;13300;51.032;3.710;2023-04-01T22:57:28;9.40;99.90
25346;DHT22;13300;51.032;3.710;2023-04-01T23:00:06;9.30;99.90
25346;DHT22;13300;51.032;3.710;2023-04-01T23:02:39;9.40;99.90
25346;DHT22;13300;51.032;3.710;2023-04-01T23:05:13;9.40;99.90
25346;DHT22;13300;51.032;3.710;2023-04-01T23:10:58;9.30;99.90
25346;DHT22;13300;51.032;3.710;2023-04-01T23:13:52;9.40;99.90
25346;DHT22;13300;51.032;3.710;2023-04-01T23:16:46;9.40;99.90
25346;DHT22;13300;51.032;3.710;2023-04-01T23:19:54;9.30;99.90
25346;DHT22;13300;51.032;3.710;2023-04-01T23:22:29;9.30;99.90
25346;DHT22;13300;51.032;3.710;2023-04-01T23:28:14;9.40;99.90
25346;DHT22;13300;51.032;3.710;2023-04-01T23:30:47;9.50;99.90
25346;DHT22;13300;51.032;3.710;2023-04-01T23:33:23;9.40;99.90
25346;DHT22;13300;51.032;3.710;2023-04-01T23:36:02;9.50;99.90
25346;DHT22;13300;51.032;3.710;2023-04-01T23:38:41;9.60;99.90
25346;DHT22;13300;51.032;3.710;2023-04-01T23:41:20;9.60;99.90
25346;DHT22;13300;51.032;3.710;2023-04-01T23:44:07;9.50;99.90
25346;DHT22;13300;51.032;3.710;2023-04-01T23:46:35;9.50;99.90
25346;DHT22;13300;51.032;3.710;2023-04-01T23:49:03;9.50;99.90
25346;DHT22;13300;51.032;3.710;2023-04-01T23:51:39;9.50;99.90
25346;DHT22;13300;51.032;3.710;2023-04-01T23:54:18;9.30;99.90
25346;DHT22;13300;51.032;3.710;2023-04-01T23:56:48;9.50;99.90
25346;DHT22;13300;51.032;3.710;2023-04-01T23:59:19;9.50;99.90
